createdAt,value
2023-01-31T00:01:40.452Z,99862.31
2023-01-31T00:04:11.881Z,99871.72
2023-01-31T00:06:43.531Z,99876.75
2023-01-31T00:09:12.456Z,99868.16
2023-01-31T00:11:39.601Z,99863.16
2023-01-31T00:14:08.681Z,99869.94
2023-01-31T00:16:36.082Z,99856.34
2023-01-31T00:19:04.414Z,99860.56
2023-01-31T00:21:32.448Z,99861.44
2023-01-31T00:24:00.420Z,99841.06
2023-01-31T00:26:31.588Z,99862.31
2023-01-31T00:29:02.092Z,99861.31
2023-01-31T00:31:31.378Z,99858.78
2023-01-31T00:33:58.922Z,99841.03
2023-01-31T00:36:32.307Z,99852.09
2023-01-31T00:39:01.217Z,99858.22
2023-01-31T00:41:30.590Z,99847.91
2023-01-31T00:43:58.267Z,99858.09
2023-01-31T00:46:25.541Z,99829.22
2023-01-31T00:48:53.594Z,99859.94
2023-01-31T00:51:21.212Z,99853.19
2023-01-31T00:53:50.172Z,99871.91
2023-01-31T00:56:23.590Z,99861.66
2023-01-31T00:58:51.469Z,99873.56
2023-01-31T01:01:24.406Z,99868.38
2023-01-31T01:03:51.699Z,99879.44
2023-01-31T01:06:19.389Z,99876.84
2023-01-31T01:08:46.888Z,99865.66
2023-01-31T01:11:20.502Z,99864.00
2023-01-31T01:13:48.506Z,99861.31
2023-01-31T01:16:22.842Z,99859.69
2023-01-31T01:18:50.645Z,99866.50
2023-01-31T01:21:21.712Z,99869.09
2023-01-31T01:23:49.474Z,99862.22
2023-01-31T01:26:19.010Z,99868.22
2023-01-31T01:28:46.615Z,99867.34
2023-01-31T01:31:16.406Z,99872.47
2023-01-31T01:33:44.594Z,99874.16
2023-01-31T01:36:16.033Z,99867.38
2023-01-31T01:38:44.282Z,99875.84
2023-01-31T01:41:13.177Z,99879.25
2023-01-31T01:43:53.449Z,99864.66
2023-01-31T01:46:44.631Z,99863.88
2023-01-31T01:49:24.090Z,99873.34
2023-01-31T01:51:55.457Z,99878.50
2023-01-31T01:54:31.633Z,99871.72
2023-01-31T01:57:02.397Z,99877.59
2023-01-31T01:59:40.795Z,99882.66
2023-01-31T02:02:07.774Z,99872.56
2023-01-31T02:04:39.505Z,99861.56
2023-01-31T02:07:09.149Z,99891.31
2023-01-31T02:09:47.156Z,99903.22
2023-01-31T02:12:13.996Z,99893.84
2023-01-31T02:14:42.361Z,99899.81
2023-01-31T02:17:14.893Z,99897.25
2023-01-31T02:20:20.147Z,99887.06
2023-01-31T02:23:31.083Z,99883.59
2023-01-31T02:26:44.157Z,99880.19
2023-01-31T02:29:44.843Z,99894.69
2023-01-31T02:33:03.080Z,99901.47
2023-01-31T02:35:59.678Z,99897.97
2023-01-31T02:39:09.555Z,99902.25
2023-01-31T02:41:49.653Z,99899.75
2023-01-31T02:44:47.514Z,99880.28
2023-01-31T02:47:40.056Z,99899.94
2023-01-31T02:50:44.440Z,99902.63
2023-01-31T02:53:29.927Z,99903.44
2023-01-31T02:56:17.936Z,99912.88
2023-01-31T02:59:01.094Z,99918.81
2023-01-31T03:01:38.813Z,99910.41
2023-01-31T03:04:08.457Z,99931.75
2023-01-31T03:06:35.716Z,99927.56
2023-01-31T03:09:28.378Z,99921.59
2023-01-31T03:12:06.992Z,99923.31
2023-01-31T03:15:06.052Z,99907.94
2023-01-31T03:17:50.811Z,99923.28
2023-01-31T03:20:41.124Z,99909.69
2023-01-31T03:23:19.199Z,99907.00
2023-01-31T03:25:48.322Z,99924.78
2023-01-31T03:28:21.200Z,99918.75
2023-01-31T03:31:27.505Z,99921.31
2023-01-31T03:34:04.516Z,99907.72
2023-01-31T03:37:12.746Z,99919.59
2023-01-31T03:39:56.765Z,99932.41
2023-01-31T03:42:49.479Z,99942.63
2023-01-31T03:45:28.857Z,99934.94
2023-01-31T03:47:58.457Z,99936.66
2023-01-31T03:50:38.666Z,99923.03
2023-01-31T03:53:10.070Z,99933.31
2023-01-31T03:56:01.595Z,99943.56
2023-01-31T03:58:33.084Z,99905.25
2023-01-31T04:01:04.960Z,99935.97
2023-01-31T04:03:41.231Z,99939.34
2023-01-31T04:06:09.863Z,99943.63
2023-01-31T04:08:37.318Z,99925.78
2023-01-31T04:11:09.932Z,99940.19
2023-01-31T04:13:36.906Z,99950.50
2023-01-31T04:16:04.376Z,99956.53
2023-01-31T04:18:31.226Z,99955.69
2023-01-31T04:20:58.035Z,99952.38
2023-01-31T04:23:26.539Z,99959.19
2023-01-31T04:25:57.399Z,99951.47
2023-01-31T04:28:24.297Z,99944.72
2023-01-31T04:30:55.681Z,99959.16
2023-01-31T04:33:23.142Z,99948.84
2023-01-31T04:35:53.281Z,99960.81
2023-01-31T04:38:20.105Z,99955.72
2023-01-31T04:40:47.009Z,99936.06
2023-01-31T04:43:13.818Z,99950.47
2023-01-31T04:45:40.670Z,99945.34
2023-01-31T04:48:07.844Z,99960.69
2023-01-31T04:50:34.943Z,99965.09
2023-01-31T04:53:01.794Z,99954.75
2023-01-31T04:55:28.616Z,99947.94
2023-01-31T04:57:55.510Z,99968.31
2023-01-31T05:00:22.556Z,99967.56
2023-01-31T05:02:50.429Z,99941.97
2023-01-31T05:05:17.842Z,99956.47
2023-01-31T05:07:45.282Z,99952.28
2023-01-31T05:10:12.418Z,99945.56
2023-01-31T05:12:39.684Z,99933.63
2023-01-31T05:15:11.622Z,99919.13
2023-01-31T05:17:38.992Z,99954.84
2023-01-31T05:20:06.835Z,99950.63
2023-01-31T05:22:33.911Z,99959.16
2023-01-31T05:25:00.807Z,99963.44
2023-01-31T05:27:27.766Z,99964.34
2023-01-31T05:29:55.008Z,99960.91
2023-01-31T05:32:21.951Z,99954.91
2023-01-31T05:34:48.879Z,99961.69
2023-01-31T05:37:15.700Z,99948.88
2023-01-31T05:39:42.570Z,99946.28
2023-01-31T05:42:09.446Z,99959.06
2023-01-31T05:44:36.799Z,99957.31
2023-01-31T05:47:03.951Z,99945.44
2023-01-31T05:49:33.395Z,99938.63
2023-01-31T05:52:01.221Z,99950.66
2023-01-31T05:54:28.178Z,99975.38
2023-01-31T05:56:55.080Z,99966.00
2023-01-31T05:59:22.272Z,99982.28
2023-01-31T06:01:49.185Z,99985.66
2023-01-31T06:04:16.118Z,99982.28
2023-01-31T06:06:44.684Z,99962.59
2023-01-31T06:09:11.749Z,99965.97
2023-01-31T06:11:38.623Z,99969.34
2023-01-31T06:14:06.683Z,99971.09
2023-01-31T06:16:33.676Z,99945.56
2023-01-31T06:19:00.561Z,99969.44
2023-01-31T06:21:28.065Z,99979.69
2023-01-31T06:23:54.995Z,99976.25
2023-01-31T06:26:21.844Z,99968.59
2023-01-31T06:28:48.734Z,99982.28
2023-01-31T06:31:15.710Z,99991.66
2023-01-31T06:33:47.221Z,99990.00
2023-01-31T06:36:18.376Z,99982.34
2023-01-31T06:38:50.558Z,99983.28
2023-01-31T06:41:18.699Z,99985.03
2023-01-31T06:43:45.499Z,99991.88
2023-01-31T06:46:12.316Z,99971.41
2023-01-31T06:48:39.215Z,99982.41
2023-01-31T06:51:06.379Z,99980.72
2023-01-31T06:53:33.213Z,99988.50
2023-01-31T06:56:00.116Z,99933.13
2023-01-31T06:58:26.983Z,99987.59
2023-01-31T07:00:54.807Z,99974.75
2023-01-31T07:03:21.723Z,99984.09
2023-01-31T07:05:48.798Z,99977.31
2023-01-31T07:08:15.651Z,99988.44
2023-01-31T07:10:42.514Z,99964.59
2023-01-31T07:13:09.442Z,99971.44
2023-01-31T07:15:36.295Z,99978.28
2023-01-31T07:18:03.246Z,99978.25
2023-01-31T07:20:30.357Z,99945.97
2023-01-31T07:22:58.271Z,99983.44
2023-01-31T07:25:26.794Z,99968.13
2023-01-31T07:27:53.683Z,99990.22
2023-01-31T07:30:20.581Z,99981.69
2023-01-31T07:32:47.425Z,99960.47
2023-01-31T07:35:14.465Z,99986.00
2023-01-31T07:37:43.468Z,99986.84
2023-01-31T07:40:13.232Z,99974.06
2023-01-31T07:42:40.838Z,99986.06
2023-01-31T07:45:22.998Z,99997.97
2023-01-31T07:47:51.554Z,99997.13
2023-01-31T07:50:19.710Z,100005.66
2023-01-31T07:52:49.186Z,99999.63
2023-01-31T07:55:16.349Z,100007.31
2023-01-31T07:57:43.156Z,99997.94
2023-01-31T08:00:31.010Z,100005.59
2023-01-31T08:03:16.612Z,99985.91
2023-01-31T08:05:46.985Z,100002.13
2023-01-31T08:08:14.682Z,99997.78
2023-01-31T08:10:41.660Z,100006.34
2023-01-31T08:13:11.033Z,99965.41
2023-01-31T08:15:37.852Z,99987.63
2023-01-31T08:18:06.405Z,99997.03
2023-01-31T08:20:33.960Z,100000.47
2023-01-31T08:23:00.854Z,99991.97
2023-01-31T08:25:32.003Z,100002.13
2023-01-31T08:28:00.383Z,99996.13
2023-01-31T08:30:28.901Z,99990.09
2023-01-31T08:32:56.876Z,100003.72
2023-01-31T08:35:26.468Z,100004.63
2023-01-31T08:37:55.336Z,100008.09
2023-01-31T08:40:25.690Z,99997.94
2023-01-31T08:43:03.106Z,100004.69
2023-01-31T08:45:31.424Z,99983.34
2023-01-31T08:48:00.431Z,100002.03
2023-01-31T08:50:31.432Z,99993.47
2023-01-31T08:53:02.096Z,99988.34
2023-01-31T08:55:31.299Z,99979.78
2023-01-31T08:58:00.248Z,99961.09
2023-01-31T09:00:27.872Z,99939.81
2023-01-31T09:03:01.131Z,99968.78
2023-01-31T09:05:30.186Z,99979.06
2023-01-31T09:07:57.280Z,99981.66
2023-01-31T09:10:24.682Z,99983.38
2023-01-31T09:12:51.679Z,99982.47
2023-01-31T09:15:19.096Z,99989.25
2023-01-31T09:17:46.103Z,99988.34
2023-01-31T09:20:13.101Z,99986.66
2023-01-31T09:22:39.980Z,99974.75
2023-01-31T09:25:07.762Z,99980.69
2023-01-31T09:27:38.019Z,99979.81
2023-01-31T09:30:07.637Z,99990.88
2023-01-31T09:32:34.706Z,99983.19
2023-01-31T09:35:01.631Z,99981.41
2023-01-31T09:37:32.119Z,99977.13
2023-01-31T09:39:59.192Z,99980.41
2023-01-31T09:42:29.659Z,99982.16
2023-01-31T09:45:06.545Z,99967.53
2023-01-31T09:47:51.069Z,99978.66
2023-01-31T09:50:30.845Z,99959.78
2023-01-31T09:52:58.485Z,99961.53
2023-01-31T09:56:10.539Z,99965.75
2023-01-31T09:59:20.329Z,99975.97
2023-01-31T10:02:24.669Z,99962.41
2023-01-31T10:05:15.644Z,99987.88
2023-01-31T10:07:51.343Z,99984.44
2023-01-31T10:10:39.500Z,99973.31
2023-01-31T10:13:22.086Z,99982.56
2023-01-31T10:16:01.077Z,99996.25
2023-01-31T10:18:33.381Z,99989.50
2023-01-31T10:21:36.894Z,99996.28
2023-01-31T10:24:23.999Z,99987.78
2023-01-31T10:26:57.726Z,100001.41
2023-01-31T10:29:29.453Z,99996.25
2023-01-31T10:32:02.958Z,99992.03
2023-01-31T10:34:51.148Z,99981.69
2023-01-31T10:37:32.464Z,99973.94
2023-01-31T10:40:07.096Z,99965.41
2023-01-31T10:42:40.094Z,99939.03
2023-01-31T10:45:23.527Z,99962.78
2023-01-31T10:47:54.339Z,99967.81
2023-01-31T10:51:10.813Z,99968.56
2023-01-31T10:53:55.525Z,99954.78
2023-01-31T10:56:42.246Z,99960.75
2023-01-31T10:59:32.509Z,99965.88
2023-01-31T11:02:03.333Z,99962.44
2023-01-31T11:04:39.210Z,99960.63
2023-01-31T11:07:06.526Z,99962.31
2023-01-31T11:09:38.070Z,99963.06
2023-01-31T11:12:07.416Z,99963.06
2023-01-31T11:14:35.585Z,99952.69
2023-01-31T11:17:24.146Z,99945.78
2023-01-31T11:19:56.096Z,99946.72
2023-01-31T11:22:31.000Z,99927.84
2023-01-31T11:24:59.811Z,99920.13
2023-01-31T11:27:38.585Z,99897.19
2023-01-31T11:30:20.786Z,99911.69
2023-01-31T11:32:48.804Z,99903.19
2023-01-31T11:35:15.457Z,99915.06
2023-01-31T11:38:00.284Z,99880.09
2023-01-31T11:40:36.919Z,99901.28
2023-01-31T11:43:26.992Z,99892.69
2023-01-31T11:46:03.820Z,99889.28
2023-01-31T11:48:43.185Z,99884.03
2023-01-31T11:51:20.845Z,99872.06
2023-01-31T11:53:51.011Z,99878.75
2023-01-31T11:56:23.747Z,99872.00
2023-01-31T11:58:55.375Z,99875.34
2023-01-31T12:01:25.506Z,99872.81
2023-01-31T12:04:03.106Z,99868.66
2023-01-31T12:06:38.264Z,99855.09
2023-01-31T12:09:21.012Z,99862.72
2023-01-31T12:11:58.267Z,99853.28
2023-01-31T12:14:40.473Z,99878.88
2023-01-31T12:17:14.207Z,99852.53
2023-01-31T12:20:27.182Z,99854.22
2023-01-31T12:23:00.545Z,99842.03
2023-01-31T12:25:54.642Z,99845.50
2023-01-31T12:28:53.544Z,99836.81
2023-01-31T12:31:46.341Z,99840.38
2023-01-31T12:35:12.727Z,99818.84
2023-01-31T12:37:59.720Z,99812.72
2023-01-31T12:40:46.138Z,99809.31
2023-01-31T12:44:01.422Z,99800.84
2023-01-31T12:47:10.882Z,99814.41
2023-01-31T12:50:21.075Z,99797.94
2023-01-31T12:53:29.803Z,99786.84
2023-01-31T12:56:40.869Z,99767.91
2023-01-31T12:59:45.917Z,99763.59
2023-01-31T13:02:44.473Z,99768.88
2023-01-31T13:05:39.157Z,99786.97
2023-01-31T13:08:20.442Z,99797.16
2023-01-31T13:11:15.911Z,99803.16
2023-01-31T13:13:50.105Z,99795.38
2023-01-31T13:16:26.573Z,99789.53
2023-01-31T13:19:00.195Z,99778.34
2023-01-31T13:21:36.208Z,99781.13
2023-01-31T13:24:27.974Z,99770.84
2023-01-31T13:27:04.580Z,99791.31
2023-01-31T13:29:47.862Z,99783.81
2023-01-31T13:32:42.255Z,99783.84
2023-01-31T13:35:24.808Z,99763.44
2023-01-31T13:37:59.197Z,99744.63
2023-01-31T13:40:53.701Z,99772.63
2023-01-31T13:43:21.118Z,99758.25
2023-01-31T13:46:04.368Z,99768.31
2023-01-31T13:48:41.521Z,99787.06
2023-01-31T13:51:38.525Z,99779.38
2023-01-31T13:54:23.608Z,99769.19
2023-01-31T13:56:55.203Z,99774.22
2023-01-31T13:59:26.601Z,99774.25
2023-01-31T14:01:55.783Z,99775.16
2023-01-31T14:04:40.306Z,99752.22
2023-01-31T14:07:10.233Z,99771.84
2023-01-31T14:10:07.547Z,99773.47
2023-01-31T14:12:37.643Z,99776.09
2023-01-31T14:15:46.371Z,99782.16
2023-01-31T14:18:13.164Z,99763.34
2023-01-31T14:20:39.958Z,99780.44
2023-01-31T14:23:33.587Z,99767.56
2023-01-31T14:26:00.435Z,99729.81
2023-01-31T14:28:27.717Z,99719.53
2023-01-31T14:30:55.949Z,99720.56
2023-01-31T14:33:25.233Z,99708.94
2023-01-31T14:36:07.310Z,99748.84
2023-01-31T14:38:52.726Z,99750.53
2023-01-31T14:41:53.356Z,99750.63
2023-01-31T14:44:51.459Z,99691.09
2023-01-31T14:47:55.858Z,99723.94
2023-01-31T14:50:47.827Z,99722.28
2023-01-31T14:53:35.353Z,99732.69
2023-01-31T14:56:28.064Z,99735.31
2023-01-31T14:58:55.068Z,99738.72
2023-01-31T15:01:32.621Z,99725.94
2023-01-31T15:03:59.972Z,99728.50
2023-01-31T15:06:43.730Z,99742.16
2023-01-31T15:09:30.647Z,99726.75
2023-01-31T15:11:58.253Z,99712.91
2023-01-31T15:14:44.762Z,99709.63
2023-01-31T15:17:40.268Z,99717.22
2023-01-31T15:20:25.837Z,99721.44
2023-01-31T15:22:58.362Z,99718.81
2023-01-31T15:25:42.450Z,99736.84
2023-01-31T15:28:17.442Z,99731.91
2023-01-31T15:30:45.874Z,99754.00
2023-01-31T15:33:29.068Z,99753.19
2023-01-31T15:36:14.608Z,99706.63
2023-01-31T15:38:58.792Z,99756.63
2023-01-31T15:41:44.349Z,99766.03
2023-01-31T15:44:21.080Z,99768.56
2023-01-31T15:46:53.365Z,99771.09
2023-01-31T15:49:39.710Z,99733.63
2023-01-31T15:52:22.275Z,99748.88
2023-01-31T15:55:07.895Z,99760.78
2023-01-31T15:57:42.569Z,99751.34
2023-01-31T16:00:39.931Z,99728.47
2023-01-31T16:03:08.291Z,99733.63
2023-01-31T16:05:39.244Z,99755.81
2023-01-31T16:08:36.668Z,99765.94
2023-01-31T16:11:07.984Z,99753.38
2023-01-31T16:13:38.840Z,99766.00
2023-01-31T16:16:10.504Z,99765.94
2023-01-31T16:18:38.453Z,99772.03
2023-01-31T16:21:30.539Z,99786.50
2023-01-31T16:24:03.876Z,99754.25
2023-01-31T16:26:35.082Z,99775.31
2023-01-31T16:29:09.936Z,99760.88
2023-01-31T16:31:49.535Z,99774.44
2023-01-31T16:34:30.800Z,99779.56
2023-01-31T16:37:07.108Z,99787.38
2023-01-31T16:39:49.250Z,99750.88
2023-01-31T16:42:16.088Z,99782.09
2023-01-31T16:44:46.064Z,99786.19
2023-01-31T16:47:42.175Z,99786.19
2023-01-31T16:50:17.914Z,99789.56
2023-01-31T16:52:47.201Z,99792.19
2023-01-31T16:55:18.827Z,99782.88
2023-01-31T16:57:46.456Z,99791.31
2023-01-31T17:00:25.196Z,99795.66
2023-01-31T17:02:57.747Z,99783.75
2023-01-31T17:05:29.596Z,99788.91
2023-01-31T17:07:58.560Z,99786.47
2023-01-31T17:10:31.594Z,99784.59
2023-01-31T17:13:03.818Z,99792.22
2023-01-31T17:15:30.650Z,99797.25
2023-01-31T17:17:57.543Z,99805.88
2023-01-31T17:20:24.666Z,99803.41
2023-01-31T17:23:00.859Z,99802.63
2023-01-31T17:25:34.695Z,99800.88
2023-01-31T17:28:01.548Z,99791.53
2023-01-31T17:30:30.544Z,99803.44
2023-01-31T17:32:58.802Z,99800.84
2023-01-31T17:35:28.476Z,99789.72
2023-01-31T17:37:55.871Z,99795.56
2023-01-31T17:40:23.170Z,99762.59
2023-01-31T17:42:55.763Z,99788.88
2023-01-31T17:45:23.201Z,99790.63
2023-01-31T17:47:50.162Z,99783.78
2023-01-31T17:50:21.046Z,99788.00
2023-01-31T17:52:48.768Z,99788.94
2023-01-31T17:55:16.972Z,99792.19
2023-01-31T17:57:44.225Z,99781.84
2023-01-31T18:00:13.704Z,99785.28
2023-01-31T18:02:44.217Z,99786.19
2023-01-31T18:05:20.235Z,99775.91
2023-01-31T18:07:49.980Z,99784.47
2023-01-31T18:10:17.613Z,99781.06
2023-01-31T18:12:45.073Z,99775.22
2023-01-31T18:15:12.192Z,99785.41
2023-01-31T18:17:38.989Z,99775.91
2023-01-31T18:20:06.786Z,99771.75
2023-01-31T18:22:33.743Z,99767.41
2023-01-31T18:25:00.556Z,99728.34
2023-01-31T18:27:27.467Z,99756.19
2023-01-31T18:29:55.636Z,99748.59
2023-01-31T18:32:22.511Z,99757.09
2023-01-31T18:34:49.401Z,99748.59
2023-01-31T18:37:20.165Z,99747.69
2023-01-31T18:39:52.649Z,99746.78
2023-01-31T18:42:20.624Z,99751.94
2023-01-31T18:44:47.594Z,99751.19
2023-01-31T18:47:15.945Z,99745.25
2023-01-31T18:49:43.162Z,99750.41
2023-01-31T18:52:10.264Z,99726.63
2023-01-31T18:54:37.895Z,99742.78
2023-01-31T18:57:05.520Z,99733.50
2023-01-31T18:59:34.739Z,99753.81
2023-01-31T19:02:02.034Z,99754.56
2023-01-31T19:04:29.033Z,99752.00
2023-01-31T19:06:55.885Z,99757.88
2023-01-31T19:09:22.992Z,99758.81
2023-01-31T19:11:49.800Z,99743.53
2023-01-31T19:14:17.617Z,99753.78
2023-01-31T19:16:45.358Z,99751.31
2023-01-31T19:19:13.032Z,99758.13
2023-01-31T19:21:39.942Z,99748.47
2023-01-31T19:24:11.475Z,99746.03
2023-01-31T19:26:38.373Z,99747.84
2023-01-31T19:29:07.548Z,99754.53
2023-01-31T19:31:36.285Z,99754.56
2023-01-31T19:34:06.435Z,99757.66
2023-01-31T19:36:39.605Z,99756.13
2023-01-31T19:39:10.953Z,99745.06
2023-01-31T19:41:38.300Z,99752.84
2023-01-31T19:44:05.223Z,99758.03
2023-01-31T19:46:35.778Z,99767.34
2023-01-31T19:49:03.455Z,99759.72
2023-01-31T19:51:30.804Z,99755.34
2023-01-31T19:54:01.525Z,99724.19
2023-01-31T19:56:29.437Z,99753.75
2023-01-31T19:58:56.842Z,99744.34
2023-01-31T20:01:24.278Z,99736.72
2023-01-31T20:03:51.245Z,99724.66
2023-01-31T20:06:22.574Z,99723.78
2023-01-31T20:08:51.432Z,99720.50
2023-01-31T20:11:18.483Z,99717.94
2023-01-31T20:13:45.291Z,99728.03
2023-01-31T20:16:13.654Z,99713.63
2023-01-31T20:18:41.819Z,99705.09
2023-01-31T20:21:15.035Z,99721.34
2023-01-31T20:23:42.802Z,99719.50
2023-01-31T20:26:12.439Z,99719.41
2023-01-31T20:28:39.720Z,99726.22
2023-01-31T20:31:11.747Z,99727.97
2023-01-31T20:33:38.839Z,99725.47
2023-01-31T20:36:06.496Z,99742.59
2023-01-31T20:38:33.478Z,99717.22
2023-01-31T20:41:00.426Z,99746.00
2023-01-31T20:43:27.632Z,99756.25
2023-01-31T20:46:10.553Z,99739.06
2023-01-31T20:48:38.264Z,99750.06
2023-01-31T20:51:05.935Z,99749.34
2023-01-31T20:53:33.113Z,99733.25
2023-01-31T20:56:04.254Z,99749.44
2023-01-31T20:58:34.709Z,99716.22
2023-01-31T21:01:04.881Z,99751.94
2023-01-31T21:03:33.440Z,99724.72
2023-01-31T21:06:01.619Z,99750.19
2023-01-31T21:08:29.787Z,99744.91
2023-01-31T21:10:58.474Z,99743.38
2023-01-31T21:13:31.481Z,99728.91
2023-01-31T21:16:01.955Z,99720.25
2023-01-31T21:18:32.751Z,99714.28
2023-01-31T21:21:03.798Z,99702.28
2023-01-31T21:23:30.599Z,99702.19
2023-01-31T21:26:05.417Z,99678.28
2023-01-31T21:28:32.538Z,99667.16
2023-01-31T21:31:02.082Z,99692.06
2023-01-31T21:33:29.823Z,99678.41
2023-01-31T21:35:58.306Z,99681.75
2023-01-31T21:38:26.753Z,99677.47
2023-01-31T21:41:13.651Z,99686.97
2023-01-31T21:43:40.831Z,99676.06
2023-01-31T21:46:12.944Z,99681.97
2023-01-31T21:48:39.979Z,99693.31
2023-01-31T21:51:13.867Z,99689.88
2023-01-31T21:53:41.542Z,99671.28
2023-01-31T21:56:17.833Z,99704.31
2023-01-31T21:58:45.469Z,99700.97
2023-01-31T22:01:19.310Z,99695.00
2023-01-31T22:03:48.751Z,99694.19
2023-01-31T22:06:22.540Z,99699.22
2023-01-31T22:08:58.315Z,99701.03
2023-01-31T22:11:26.430Z,99705.31
2023-01-31T22:13:55.948Z,99712.97
2023-01-31T22:16:23.214Z,99716.41
2023-01-31T22:18:50.174Z,99719.88
2023-01-31T22:21:20.588Z,99719.81
2023-01-31T22:23:51.019Z,99724.91
2023-01-31T22:26:22.455Z,99728.47
2023-01-31T22:28:50.371Z,99709.66
2023-01-31T22:31:18.562Z,99731.84
2023-01-31T22:33:45.673Z,99723.09
2023-01-31T22:36:14.597Z,99734.38
2023-01-31T22:38:42.037Z,99737.75
2023-01-31T22:41:12.882Z,99734.41
2023-01-31T22:43:47.887Z,99728.31
2023-01-31T22:46:19.298Z,99724.78
2023-01-31T22:48:49.202Z,99731.75
2023-01-31T22:51:20.048Z,99731.81
2023-01-31T22:53:47.344Z,99689.25
2023-01-31T22:56:24.242Z,99721.38
2023-01-31T22:58:59.087Z,99714.56
2023-01-31T23:01:30.508Z,99721.47
2023-01-31T23:03:59.626Z,99700.06
2023-01-31T23:06:28.275Z,99694.03
2023-01-31T23:08:55.774Z,99706.94
2023-01-31T23:11:23.730Z,99696.06
2023-01-31T23:13:51.436Z,99704.69
2023-01-31T23:16:43.548Z,99686.72
2023-01-31T23:19:10.790Z,99689.94
2023-01-31T23:21:42.517Z,99666.31
2023-01-31T23:24:10.777Z,99647.69
2023-01-31T23:26:37.616Z,99679.03
2023-01-31T23:29:04.480Z,99687.72
2023-01-31T23:31:32.528Z,99677.47
2023-01-31T23:34:00.648Z,99666.59
2023-01-31T23:36:28.067Z,99681.97
2023-01-31T23:38:54.969Z,99698.09
2023-01-31T23:41:21.785Z,99682.69
2023-01-31T23:43:48.606Z,99675.84
2023-01-31T23:46:15.560Z,99674.34
2023-01-31T23:48:43.300Z,99676.78
2023-01-31T23:51:10.214Z,99656.97
2023-01-31T23:53:37.132Z,99656.09
2023-01-31T23:56:04.779Z,99649.34
2023-01-31T23:58:31.644Z,99651.19
